createdAt,value
2018-09-04T00:00:52.358Z,94790.44
2018-09-04T00:03:19.069Z,94785.20
2018-09-04T00:05:45.844Z,94790.63
2018-09-04T00:08:12.536Z,94783.36
2018-09-04T00:10:39.224Z,94785.28
2018-09-04T00:13:05.953Z,94778.61
2018-09-04T00:15:32.624Z,94788.85
2018-09-04T00:17:59.342Z,94785.53
2018-09-04T00:20:28.983Z,94786.33
2018-09-04T00:22:55.768Z,94784.16
2018-09-04T00:25:25.587Z,94778.77
2018-09-04T00:27:52.326Z,94781.85
2018-09-04T00:30:19.003Z,94783.62
2018-09-04T00:32:45.728Z,94780.34
2018-09-04T00:35:12.446Z,94786.48
2018-09-04T00:37:39.116Z,94785.88
2018-09-04T00:40:05.943Z,94780.00
2018-09-04T00:42:32.626Z,94778.50
2018-09-04T00:44:59.352Z,94777.88
2018-09-04T00:47:26.042Z,94772.06
2018-09-04T00:49:54.370Z,94770.13
2018-09-04T00:52:21.172Z,94764.07
2018-09-04T00:54:47.901Z,94766.78
2018-09-04T00:57:14.569Z,94765.92
2018-09-04T00:59:42.676Z,94767.58
2018-09-04T01:02:07.996Z,94774.25
2018-09-04T01:04:34.706Z,94774.36
2018-09-04T01:07:04.244Z,94776.63
2018-09-04T01:09:31.927Z,94770.71
2018-09-04T01:11:57.593Z,94773.88
2018-09-04T01:14:24.264Z,94776.93
2018-09-04T01:16:50.984Z,94779.34
2018-09-04T01:19:19.240Z,94780.20
2018-09-04T01:21:44.383Z,94784.58
2018-09-04T01:24:11.066Z,94784.95
2018-09-04T01:26:37.829Z,94785.52
2018-09-04T01:29:04.504Z,94787.97
2018-09-04T01:31:31.220Z,94792.27
2018-09-04T01:33:57.945Z,94793.55
2018-09-04T01:36:24.653Z,94789.93
2018-09-04T01:38:51.409Z,94788.05
2018-09-04T01:41:18.122Z,94785.27
2018-09-04T01:43:44.856Z,94788.50
2018-09-04T01:46:11.498Z,94796.11
2018-09-04T01:48:38.228Z,94789.44
2018-09-04T01:51:04.912Z,94800.10
2018-09-04T01:53:31.592Z,94797.92
2018-09-04T01:55:58.310Z,94800.75
2018-09-04T01:58:24.980Z,94805.84
2018-09-04T02:00:51.777Z,94802.03
2018-09-04T02:03:18.462Z,94805.05
2018-09-04T02:05:45.211Z,94803.76
2018-09-04T02:08:11.894Z,94800.59
2018-09-04T02:10:38.619Z,94804.92
2018-09-04T02:13:05.348Z,94809.48
2018-09-04T02:15:32.065Z,94807.16
2018-09-04T02:17:58.739Z,94812.23
2018-09-04T02:20:25.487Z,94815.73
2018-09-04T02:22:52.252Z,94811.89
2018-09-04T02:25:20.403Z,94808.09
2018-09-04T02:27:45.637Z,94813.36
2018-09-04T02:30:12.311Z,94804.81
2018-09-04T02:32:39.113Z,94803.05
2018-09-04T02:35:07.324Z,94802.75
2018-09-04T02:37:32.527Z,94798.03
2018-09-04T02:39:59.262Z,94798.64
2018-09-04T02:42:25.978Z,94804.03
2018-09-04T02:44:52.719Z,94801.88
2018-09-04T02:47:19.402Z,94794.91
2018-09-04T02:49:46.119Z,94799.66
2018-09-04T02:52:12.964Z,94800.03
2018-09-04T02:54:39.646Z,94801.69
2018-09-04T02:57:06.460Z,94791.48
2018-09-04T02:59:33.186Z,94797.89
2018-09-04T03:01:59.830Z,94800.52
2018-09-04T03:04:26.611Z,94796.38
2018-09-04T03:06:53.341Z,94796.64
2018-09-04T03:09:20.058Z,94796.60
2018-09-04T03:11:46.737Z,94798.38
2018-09-04T03:14:13.506Z,94795.89
2018-09-04T03:16:40.225Z,94795.25
2018-09-04T03:19:06.901Z,94800.53
2018-09-04T03:21:33.626Z,94800.00
2018-09-04T03:24:00.349Z,94802.22
2018-09-04T03:26:27.157Z,94789.22
2018-09-04T03:28:53.875Z,94782.75
2018-09-04T03:31:22.632Z,94781.41
2018-09-04T03:33:49.258Z,94777.82
2018-09-04T03:36:16.014Z,94776.69
2018-09-04T03:38:42.762Z,94775.00
2018-09-04T03:41:09.446Z,94770.52
2018-09-04T03:43:36.194Z,94768.48
2018-09-04T03:46:02.878Z,94763.52
2018-09-04T03:48:29.556Z,94767.16
2018-09-04T03:50:56.332Z,94764.38
2018-09-04T03:53:23.021Z,94769.55
2018-09-04T03:55:49.727Z,94774.58
2018-09-04T03:58:16.405Z,94777.75
2018-09-04T04:00:43.100Z,94787.58
2018-09-04T04:03:09.893Z,94788.29
2018-09-04T04:05:36.661Z,94785.28
2018-09-04T04:08:03.374Z,94791.56
2018-09-04T04:10:30.113Z,94788.59
2018-09-04T04:12:56.801Z,94791.63
2018-09-04T04:15:23.552Z,94785.88
2018-09-04T04:17:50.290Z,94780.91
2018-09-04T04:20:16.971Z,94785.05
2018-09-04T04:22:43.737Z,94784.22
2018-09-04T04:25:10.422Z,94785.95
2018-09-04T04:27:37.107Z,94796.57
2018-09-04T04:30:03.799Z,94797.21
2018-09-04T04:32:32.645Z,94801.77
2018-09-04T04:34:57.193Z,94800.16
2018-09-04T04:37:23.877Z,94796.57
2018-09-04T04:39:53.276Z,94801.02
2018-09-04T04:42:19.898Z,94800.19
2018-09-04T04:44:46.599Z,94799.44
2018-09-04T04:47:13.293Z,94800.91
2018-09-04T04:49:39.998Z,94800.03
2018-09-04T04:52:06.669Z,94796.77
2018-09-04T04:54:33.359Z,94793.22
2018-09-04T04:57:00.096Z,94796.02
2018-09-04T04:59:29.842Z,94793.98
2018-09-04T05:01:56.566Z,94795.19
2018-09-04T05:04:24.279Z,94795.86
2018-09-04T05:06:49.924Z,94792.73
2018-09-04T05:09:16.597Z,94799.66
2018-09-04T05:11:43.337Z,94801.09
2018-09-04T05:14:09.994Z,94798.95
2018-09-04T05:16:36.681Z,94803.50
2018-09-04T05:19:06.242Z,94797.70
2018-09-04T05:21:32.926Z,94797.97
2018-09-04T05:24:02.908Z,94802.08
2018-09-04T05:26:29.717Z,94803.59
2018-09-04T05:28:56.405Z,94797.32
2018-09-04T05:31:25.772Z,94799.31
2018-09-04T05:33:52.451Z,94798.77
2018-09-04T05:36:19.250Z,94796.83
2018-09-04T05:38:45.935Z,94795.97
2018-09-04T05:41:12.605Z,94794.20
2018-09-04T05:43:39.440Z,94794.77
2018-09-04T05:46:06.123Z,94804.03
2018-09-04T05:48:32.802Z,94797.82
2018-09-04T05:50:59.489Z,94799.86
2018-09-04T05:53:26.165Z,94800.48
2018-09-04T05:55:53.037Z,94801.20
2018-09-04T05:58:19.834Z,94801.05
2018-09-04T06:00:46.483Z,94801.02
2018-09-04T06:03:13.212Z,94797.64
2018-09-04T06:05:39.891Z,94795.89
2018-09-04T06:08:06.578Z,94794.58
2018-09-04T06:10:33.257Z,94801.39
2018-09-04T06:12:59.940Z,94795.34
2018-09-04T06:15:29.982Z,94796.91
2018-09-04T06:17:56.765Z,94792.47
2018-09-04T06:20:23.456Z,94799.88
2018-09-04T06:22:53.125Z,94801.20
2018-09-04T06:25:19.881Z,94794.53
2018-09-04T06:27:46.587Z,94794.00
2018-09-04T06:30:13.337Z,94796.34
2018-09-04T06:32:40.057Z,94788.76
2018-09-04T06:35:06.790Z,94796.10
2018-09-04T06:37:33.660Z,94801.23
2018-09-04T06:40:00.346Z,94790.08
2018-09-04T06:42:27.038Z,94808.69
2018-09-04T06:44:53.738Z,94806.38
2018-09-04T06:47:20.548Z,94808.59
2018-09-04T06:49:47.203Z,94812.25
2018-09-04T06:52:13.894Z,94821.59
2018-09-04T06:54:40.636Z,94809.67
2018-09-04T06:57:09.510Z,94810.52
2018-09-04T06:59:34.086Z,94810.20
2018-09-04T07:02:00.776Z,94812.08
2018-09-04T07:04:27.548Z,94804.45
2018-09-04T07:06:54.234Z,94813.13
2018-09-04T07:09:20.938Z,94808.48
2018-09-04T07:11:47.664Z,94815.27
2018-09-04T07:14:17.703Z,94815.88
2018-09-04T07:16:44.565Z,94812.65
2018-09-04T07:19:11.251Z,94813.31
2018-09-04T07:21:37.970Z,94810.86
2018-09-04T07:24:04.682Z,94816.58
2018-09-04T07:26:31.422Z,94818.00
2018-09-04T07:28:58.251Z,94814.27
2018-09-04T07:31:25.547Z,94819.94
2018-09-04T07:33:52.177Z,94822.94
2018-09-04T07:36:18.943Z,94817.81
2018-09-04T07:38:45.583Z,94818.81
2018-09-04T07:41:12.334Z,94817.91
2018-09-04T07:43:39.002Z,94822.72
2018-09-04T07:46:07.398Z,94821.70
2018-09-04T07:48:32.475Z,94822.19
2018-09-04T07:50:59.213Z,94817.90
2018-09-04T07:53:26.006Z,94820.25
2018-09-04T07:55:52.656Z,94813.45
2018-09-04T07:58:19.820Z,94815.38
2018-09-04T08:00:46.575Z,94813.30
2018-09-04T08:03:13.323Z,94808.61
2018-09-04T08:05:40.037Z,94812.42
2018-09-04T08:08:08.943Z,94814.73
2018-09-04T08:10:35.697Z,94816.64
2018-09-04T08:13:02.405Z,94813.30
2018-09-04T08:15:31.944Z,94809.66
2018-09-04T08:17:58.816Z,94812.41
2018-09-04T08:20:25.518Z,94809.89
2018-09-04T08:22:52.330Z,94802.36
2018-09-04T08:25:18.915Z,94805.36
2018-09-04T08:27:45.659Z,94797.27
2018-09-04T08:30:12.426Z,94798.95
2018-09-04T08:32:42.024Z,94800.40
2018-09-04T08:35:08.741Z,94802.79
2018-09-04T08:37:38.645Z,94789.38
2018-09-04T08:40:14.918Z,94795.78
2018-09-04T08:42:41.736Z,94805.17
2018-09-04T08:45:08.436Z,94789.47
2018-09-04T08:47:35.126Z,94796.38
2018-09-04T08:50:01.949Z,94792.53
2018-09-04T08:52:28.734Z,94791.92
2018-09-04T08:54:56.707Z,94788.41
2018-09-04T08:57:22.097Z,94777.59
2018-09-04T08:59:48.777Z,94789.00
2018-09-04T09:02:15.454Z,94789.02
2018-09-04T09:04:44.601Z,94781.59
2018-09-04T09:07:12.087Z,94769.31
2018-09-04T09:09:38.827Z,94770.25
2018-09-04T09:12:05.519Z,94767.66
2018-09-04T09:14:32.248Z,94771.34
2018-09-04T09:16:59.061Z,94773.41
2018-09-04T09:19:27.032Z,94769.39
2018-09-04T09:21:52.492Z,94763.36
2018-09-04T09:24:19.177Z,94769.60
2018-09-04T09:26:45.874Z,94768.03
2018-09-04T09:29:12.563Z,94766.88
2018-09-04T09:31:39.252Z,94769.52
2018-09-04T09:34:06.056Z,94767.44
2018-09-04T09:36:32.774Z,94765.40
2018-09-04T09:39:00.822Z,94769.17
2018-09-04T09:41:29.403Z,94769.75
2018-09-04T09:43:56.163Z,94766.84
2018-09-04T09:46:22.899Z,94769.32
2018-09-04T09:48:49.637Z,94767.14
2018-09-04T09:51:16.397Z,94766.49
2018-09-04T09:53:43.345Z,94759.57
2018-09-04T09:56:10.378Z,94760.56
2018-09-04T09:58:37.101Z,94760.53
2018-09-04T10:01:06.881Z,94763.13
2018-09-04T10:03:33.626Z,94760.34
2018-09-04T10:06:00.451Z,94764.40
2018-09-04T10:08:27.208Z,94759.06
2018-09-04T10:10:53.863Z,94755.77
2018-09-04T10:13:20.549Z,94755.01
2018-09-04T10:15:47.569Z,94759.63
2018-09-04T10:18:14.641Z,94762.44
2018-09-04T10:20:41.320Z,94751.56
2018-09-04T10:23:08.039Z,94756.64
2018-09-04T10:25:34.696Z,94753.00
2018-09-04T10:28:01.541Z,94754.02
2018-09-04T10:30:29.747Z,94756.41
2018-09-04T10:32:54.781Z,94749.30
2018-09-04T10:35:21.440Z,94742.16
2018-09-04T10:37:48.927Z,94731.30
2018-09-04T10:40:17.702Z,94727.26
2018-09-04T10:42:44.397Z,94726.60
2018-09-04T10:45:11.058Z,94724.90
2018-09-04T10:47:37.761Z,94723.36
2018-09-04T10:50:04.420Z,94720.20
2018-09-04T10:52:31.063Z,94603.52
2018-09-04T10:54:57.740Z,94725.44
2018-09-04T10:57:24.377Z,94713.72
2018-09-04T10:59:51.128Z,94708.24
2018-09-04T11:02:17.836Z,94705.16
2018-09-04T11:04:44.526Z,94706.59
2018-09-04T11:07:11.186Z,94696.94
2018-09-04T11:09:40.249Z,94692.86
2018-09-04T11:12:09.450Z,94699.20
2018-09-04T11:14:36.547Z,94690.58
2018-09-04T11:17:03.361Z,94691.47
2018-09-04T11:19:31.398Z,94681.96
2018-09-04T11:21:56.727Z,94678.48
2018-09-04T11:24:23.395Z,94675.72
2018-09-04T11:26:50.133Z,94670.19
2018-09-04T11:29:16.734Z,94668.38
2018-09-04T11:31:43.410Z,94662.67
2018-09-04T11:34:10.161Z,94657.34
2018-09-04T11:36:36.991Z,94660.98
2018-09-04T11:39:05.085Z,94659.15
2018-09-04T11:41:30.614Z,94654.98
2018-09-04T11:43:57.225Z,94647.34
2018-09-04T11:46:23.955Z,94642.95
2018-09-04T11:48:50.696Z,94637.58
2018-09-04T11:51:17.429Z,94623.48
2018-09-04T11:53:44.159Z,94627.52
2018-09-04T11:56:10.847Z,94624.58
2018-09-04T11:58:37.568Z,94618.59
2018-09-04T12:01:04.335Z,94620.00
2018-09-04T12:03:31.044Z,94619.75
2018-09-04T12:05:57.770Z,94610.67
2018-09-04T12:08:24.604Z,94607.88
2018-09-04T12:10:53.467Z,94607.88
2018-09-04T12:13:20.195Z,94601.31
2018-09-04T12:15:46.885Z,94605.80
2018-09-04T12:18:13.621Z,94601.02
2018-09-04T12:20:40.405Z,94594.41
2018-09-04T12:23:07.197Z,94593.05
2018-09-04T12:25:33.942Z,94587.56
2018-09-04T12:28:00.697Z,94580.76
2018-09-04T12:30:27.362Z,94571.44
2018-09-04T12:32:54.209Z,94571.63
2018-09-04T12:35:20.985Z,94449.91
2018-09-04T12:37:47.621Z,94569.94
2018-09-04T12:40:14.355Z,94567.16
2018-09-04T12:42:41.563Z,94562.36
2018-09-04T12:45:11.649Z,94557.16
2018-09-04T12:47:38.364Z,94555.31
2018-09-04T12:50:05.216Z,94551.28
2018-09-04T12:52:34.433Z,94555.05
2018-09-04T12:55:01.103Z,94547.78
2018-09-04T12:57:27.932Z,94552.91
2018-09-04T12:59:54.733Z,94551.48
2018-09-04T13:02:22.739Z,94550.42
2018-09-04T13:04:48.032Z,94548.38
2018-09-04T13:07:14.766Z,94550.48
2018-09-04T13:09:41.521Z,94548.86
2018-09-04T13:12:08.282Z,94546.64
2018-09-04T13:14:35.034Z,94546.93
2018-09-04T13:17:01.724Z,94544.73
2018-09-04T13:19:28.451Z,94540.56
2018-09-04T13:21:55.263Z,94541.41
2018-09-04T13:24:21.894Z,94510.03
2018-09-04T13:26:48.739Z,94522.61
2018-09-04T13:29:15.454Z,94521.99
2018-09-04T13:31:42.130Z,94525.58
2018-09-04T13:34:08.903Z,94524.09
2018-09-04T13:36:35.690Z,94517.36
2018-09-04T13:39:08.945Z,94519.78
2018-09-04T13:41:28.961Z,94528.09
2018-09-04T13:43:55.643Z,94524.88
2018-09-04T13:46:22.279Z,94522.27
2018-09-04T13:48:49.017Z,94528.67
2018-09-04T13:51:15.671Z,94525.36
2018-09-04T13:53:42.320Z,94520.83
2018-09-04T13:56:09.034Z,94520.77
2018-09-04T13:58:35.677Z,94518.44
2018-09-04T14:01:02.341Z,94519.40
2018-09-04T14:03:29.064Z,94517.45
2018-09-04T14:05:55.730Z,94518.44
2018-09-04T14:08:22.426Z,94525.08
2018-09-04T14:10:49.083Z,94521.50
2018-09-04T14:13:17.064Z,94522.34
2018-09-04T14:15:43.683Z,94522.32
2018-09-04T14:18:09.033Z,94521.58
2018-09-04T14:20:35.688Z,94525.19
2018-09-04T14:23:02.358Z,94519.72
2018-09-04T14:25:29.069Z,94531.94
2018-09-04T14:27:55.944Z,94533.14
2018-09-04T14:30:22.644Z,94535.02
2018-09-04T14:32:49.310Z,94538.63
2018-09-04T14:35:15.974Z,94539.22
2018-09-04T14:37:44.108Z,94538.94
2018-09-04T14:40:09.542Z,94540.38
2018-09-04T14:42:36.160Z,94539.42
2018-09-04T14:45:02.850Z,94542.55
2018-09-04T14:47:29.467Z,94541.83
2018-09-04T14:49:56.229Z,94543.28
2018-09-04T14:52:22.964Z,94543.26
2018-09-04T14:54:51.507Z,94542.66
2018-09-04T14:57:16.231Z,94542.19
2018-09-04T14:59:42.886Z,94540.80
2018-09-04T15:02:09.604Z,94544.14
2018-09-04T15:04:36.317Z,94547.00
2018-09-04T15:07:03.036Z,94550.87
2018-09-04T15:09:29.622Z,94555.22
2018-09-04T15:11:56.356Z,94553.84
2018-09-04T15:14:23.075Z,94554.47
2018-09-04T15:16:49.714Z,94548.30
2018-09-04T15:19:18.204Z,94553.49
2018-09-04T15:21:43.087Z,94557.49
2018-09-04T15:24:09.738Z,94557.34
2018-09-04T15:26:36.377Z,94568.95
2018-09-04T15:29:03.033Z,94562.33
2018-09-04T15:31:29.738Z,94561.00
2018-09-04T15:33:56.509Z,94560.64
2018-09-04T15:36:23.155Z,94555.44
2018-09-04T15:38:49.808Z,94552.58
2018-09-04T15:41:16.467Z,94550.66
2018-09-04T15:43:43.149Z,94555.22
2018-09-04T15:46:09.850Z,94555.76
2018-09-04T15:48:36.524Z,94560.50
2018-09-04T15:51:03.201Z,94560.38
2018-09-04T15:53:31.192Z,94556.02
2018-09-04T15:55:57.835Z,94554.39
2018-09-04T15:58:23.141Z,94558.38
2018-09-04T16:00:49.802Z,94560.19
2018-09-04T16:03:16.474Z,94559.13
2018-09-04T16:05:43.179Z,94563.91
2018-09-04T16:08:09.833Z,94558.09
2018-09-04T16:10:36.499Z,94563.28
2018-09-04T16:13:03.171Z,94567.58
2018-09-04T16:15:30.304Z,94570.92
2018-09-04T16:17:58.339Z,94568.75
2018-09-04T16:20:23.582Z,94579.94
2018-09-04T16:22:50.320Z,94573.92
2018-09-04T16:25:17.037Z,94577.69
2018-09-04T16:27:43.684Z,94575.91
2018-09-04T16:30:10.328Z,94577.03
2018-09-04T16:32:37.317Z,94578.08
2018-09-04T16:35:03.789Z,94583.20
2018-09-04T16:37:30.486Z,94584.98
2018-09-04T16:39:57.197Z,94593.59
2018-09-04T16:42:23.867Z,94587.45
2018-09-04T16:44:50.574Z,94597.23
2018-09-04T16:47:18.972Z,94599.08
2018-09-04T16:49:43.972Z,94596.20
2018-09-04T16:52:10.620Z,94601.97
2018-09-04T16:54:37.264Z,94606.73
2018-09-04T16:57:03.903Z,94609.70
2018-09-04T16:59:30.558Z,94609.14
2018-09-04T17:01:57.193Z,94614.73
2018-09-04T17:04:23.912Z,94613.23
2018-09-04T17:06:50.556Z,94611.66
2018-09-04T17:09:17.200Z,94611.36
2018-09-04T17:11:43.865Z,94615.49
2018-09-04T17:14:10.543Z,94622.92
2018-09-04T17:16:37.192Z,94617.06
2018-09-04T17:19:03.831Z,94621.89
2018-09-04T17:21:30.484Z,94622.55
2018-09-04T17:23:57.122Z,94623.87
2018-09-04T17:26:25.996Z,94618.83
2018-09-04T17:28:50.535Z,94620.42
2018-09-04T17:31:17.136Z,94621.44
2018-09-04T17:33:43.778Z,94625.13
2018-09-04T17:36:10.440Z,94625.22
2018-09-04T17:38:40.035Z,94627.42
2018-09-04T17:41:06.687Z,94635.25
2018-09-04T17:43:33.322Z,94630.97
2018-09-04T17:45:59.967Z,94631.72
2018-09-04T17:48:26.602Z,94634.41
2018-09-04T17:50:53.313Z,94637.58
2018-09-04T17:53:19.917Z,94640.66
2018-09-04T17:55:46.566Z,94644.91
2018-09-04T17:58:13.212Z,94642.06
2018-09-04T18:00:39.898Z,94641.11
2018-09-04T18:03:06.608Z,94646.40
2018-09-04T18:05:33.338Z,94655.36
2018-09-04T18:07:59.976Z,94649.09
2018-09-04T18:10:26.705Z,94655.25
2018-09-04T18:12:54.437Z,94658.22
2018-09-04T18:15:20.095Z,94648.74
2018-09-04T18:17:46.727Z,94654.05
2018-09-04T18:20:13.375Z,94654.77
2018-09-04T18:22:40.025Z,94663.62
2018-09-04T18:25:06.688Z,94666.23
2018-09-04T18:27:33.414Z,94666.22
2018-09-04T18:30:00.057Z,94664.52
2018-09-04T18:32:26.693Z,94669.17
2018-09-04T18:34:53.408Z,94671.42
2018-09-04T18:37:20.046Z,94674.11
2018-09-04T18:39:46.698Z,94674.86
2018-09-04T18:42:16.546Z,94678.78
2018-09-04T18:44:44.695Z,94675.25
2018-09-04T18:47:09.894Z,94687.81
2018-09-04T18:49:36.627Z,94683.61
2018-09-04T18:52:03.261Z,94679.89
2018-09-04T18:54:31.262Z,94679.88
2018-09-04T18:56:56.570Z,94686.48
2018-09-04T18:59:23.190Z,94689.34
2018-09-04T19:01:49.884Z,94691.97
2018-09-04T19:04:16.559Z,94697.80
2018-09-04T19:06:43.255Z,94701.37
2018-09-04T19:09:09.809Z,94703.24
2018-09-04T19:11:36.463Z,94703.41
2018-09-04T19:14:03.162Z,94710.24
2018-09-04T19:16:29.761Z,94709.08
2018-09-04T19:18:56.402Z,94706.30
2018-09-04T19:21:26.252Z,94714.16
2018-09-04T19:23:52.942Z,94714.00
2018-09-04T19:26:19.575Z,94711.77
2018-09-04T19:28:46.219Z,94711.94
2018-09-04T19:31:12.859Z,94710.56
2018-09-04T19:33:39.531Z,94704.41
2018-09-04T19:36:06.245Z,94710.45
2018-09-04T19:38:32.902Z,94708.48
2018-09-04T19:40:59.542Z,94700.56
2018-09-04T19:43:26.177Z,94703.17
2018-09-04T19:45:52.915Z,94704.30
2018-09-04T19:48:19.622Z,94696.00
2018-09-04T19:50:46.350Z,94704.46
2018-09-04T19:53:12.953Z,94696.09
2018-09-04T19:55:39.591Z,94706.23
2018-09-04T19:58:06.236Z,94709.47
2018-09-04T20:00:32.923Z,94706.67
2018-09-04T20:02:59.560Z,94709.56
2018-09-04T20:05:26.212Z,94706.77
2018-09-04T20:07:52.984Z,94705.57
2018-09-04T20:10:19.639Z,94704.46
2018-09-04T20:12:46.290Z,94702.22
2018-09-04T20:15:12.956Z,94699.48
2018-09-04T20:17:39.645Z,94700.09
2018-09-04T20:20:06.387Z,94696.45
2018-09-04T20:22:33.038Z,94699.41
2018-09-04T20:24:59.777Z,94693.44
2018-09-04T20:27:26.494Z,94696.23
2018-09-04T20:29:53.141Z,94703.30
2018-09-04T20:32:19.778Z,94708.34
2018-09-04T20:34:46.769Z,94712.50
2018-09-04T20:37:13.439Z,94732.44
2018-09-04T20:39:40.126Z,94734.37
2018-09-04T20:42:06.820Z,94738.84
2018-09-04T20:44:33.537Z,94745.22
2018-09-04T20:47:00.195Z,94755.11
2018-09-04T20:49:26.903Z,94762.42
2018-09-04T20:51:53.560Z,94752.43
2018-09-04T20:54:20.266Z,94761.42
2018-09-04T20:56:46.887Z,94765.02
2018-09-04T20:59:15.015Z,94771.83
2018-09-04T21:01:40.287Z,94771.43
2018-09-04T21:04:06.970Z,94758.66
2018-09-04T21:06:33.712Z,94759.88
2018-09-04T21:09:01.837Z,94767.54
2018-09-04T21:11:27.312Z,94760.00
2018-09-04T21:13:53.985Z,94768.88
2018-09-04T21:16:20.701Z,94769.47
2018-09-04T21:18:47.388Z,94770.59
2018-09-04T21:21:14.198Z,94765.37
2018-09-04T21:23:40.883Z,94756.81
2018-09-04T21:26:10.774Z,94762.58
2018-09-04T21:28:37.625Z,94754.21
2018-09-04T21:31:04.365Z,94762.23
2018-09-04T21:33:31.095Z,94768.83
2018-09-04T21:35:57.862Z,94776.12
2018-09-04T21:38:24.613Z,94777.41
2018-09-04T21:40:51.365Z,94777.66
2018-09-04T21:43:19.083Z,94770.22
2018-09-04T21:45:44.759Z,94776.91
2018-09-04T21:48:11.429Z,94776.17
2018-09-04T21:50:38.143Z,94777.66
2018-09-04T21:53:04.832Z,94781.57
2018-09-04T21:55:31.599Z,94788.22
2018-09-04T21:57:58.401Z,94783.17
2018-09-04T22:00:25.079Z,94781.25
2018-09-04T22:02:51.869Z,94784.06
2018-09-04T22:05:18.562Z,94774.41
2018-09-04T22:07:45.234Z,94785.16
2018-09-04T22:10:11.913Z,94787.39
2018-09-04T22:12:38.670Z,94781.27
2018-09-04T22:15:05.322Z,94781.38
2018-09-04T22:17:32.057Z,94787.33
2018-09-04T22:20:00.513Z,94781.30
2018-09-04T22:22:28.453Z,94787.63
2018-09-04T22:24:55.140Z,94790.23
2018-09-04T22:27:21.947Z,94788.83
2018-09-04T22:29:48.631Z,94787.92
2018-09-04T22:32:15.277Z,94790.84
2018-09-04T22:34:42.120Z,94796.27
2018-09-04T22:37:08.766Z,94795.16
2018-09-04T22:39:35.483Z,94791.62
2018-09-04T22:42:02.156Z,94788.34
2018-09-04T22:44:28.839Z,94789.45
2018-09-04T22:46:55.658Z,94782.85
2018-09-04T22:49:22.325Z,94780.89
2018-09-04T22:51:50.684Z,94774.45
2018-09-04T22:54:15.676Z,94777.24
2018-09-04T22:56:42.390Z,94775.66
2018-09-04T22:59:11.699Z,94769.33
2018-09-04T23:01:38.378Z,94773.36
2018-09-04T23:04:05.055Z,94774.22
2018-09-04T23:06:31.753Z,94760.46
2018-09-04T23:08:58.509Z,94756.70
2018-09-04T23:11:25.193Z,94761.69
2018-09-04T23:13:51.866Z,94754.56
2018-09-04T23:16:18.552Z,94751.39
2018-09-04T23:18:45.239Z,94747.96
2018-09-04T23:21:12.066Z,94743.22
2018-09-04T23:23:38.742Z,94731.17
2018-09-04T23:26:05.478Z,94734.82
2018-09-04T23:28:34.369Z,94737.20
2018-09-04T23:31:02.393Z,94735.13
2018-09-04T23:33:29.112Z,94733.96
2018-09-04T23:35:55.986Z,94736.70
2018-09-04T23:38:22.695Z,94733.34
2018-09-04T23:40:49.331Z,94731.12
2018-09-04T23:43:16.036Z,94732.30
2018-09-04T23:45:42.729Z,94725.03
2018-09-04T23:48:09.559Z,94727.69
2018-09-04T23:50:36.200Z,94719.84
2018-09-04T23:53:03.035Z,94719.84
2018-09-04T23:55:29.691Z,94717.61
2018-09-04T23:57:56.481Z,94723.38
